Terminal Aerodrome Forecast
Issued by NWS

Home | Current Version | Previous Version | Text Only | Print | Product List | Glossary On
Versions: 1 2 3 4 5 6 7 8 9 10 11 12 13 14
000
FTUS45 KMSO 261753 RRA
TAFSMN
TAF
KSMN 261753Z 2618/2718 VRB03KT P6SM VCSH SCT120
     FM261810 35011G18KT P6SM -TSRA BKN050CB
     FM262000 33009KT P6SM VCSH BKN050
     FM270000 VRB06KT P6SM SCT100
      AMD LTD TO CLD VIS AND WIND=

USA.gov is the U.S. government's official web portal to all federal, state and local government web resources and services.